sensor_id;sensor_type;location;lat;lon;timestamp;pressure;altitude;pressure_sealevel;temperature;humidity
8416;BME280;4245;42.120;24.732;2022-12-07T00:01:40;99495.72;;;6.53;100.00
8416;BME280;4245;42.120;24.732;2022-12-07T00:04:11;99494.31;;;6.46;100.00
8416;BME280;4245;42.120;24.732;2022-12-07T00:06:40;99498.91;;;6.43;100.00
8416;BME280;4245;42.120;24.732;2022-12-07T00:09:10;99497.75;;;6.48;100.00
8416;BME280;4245;42.120;24.732;2022-12-07T00:11:38;99502.69;;;6.37;100.00
8416;BME280;4245;42.120;24.732;2022-12-07T00:14:06;99495.25;;;6.28;100.00
8416;BME280;4245;42.120;24.732;2022-12-07T00:16:35;99491.88;;;6.25;100.00
8416;BME280;4245;42.120;24.732;2022-12-07T00:19:02;99497.19;;;6.42;100.00
8416;BME280;4245;42.120;24.732;2022-12-07T00:21:32;99492.91;;;6.39;100.00
8416;BME280;4245;42.120;24.732;2022-12-07T00:24:00;99501.22;;;6.49;100.00
8416;BME280;4245;42.120;24.732;2022-12-07T00:26:29;99499.84;;;6.42;100.00
8416;BME280;4245;42.120;24.732;2022-12-07T00:28:58;99496.50;;;6.38;100.00
8416;BME280;4245;42.120;24.732;2022-12-07T00:31:27;99497.72;;;6.31;100.00
8416;BME280;4245;42.120;24.732;2022-12-07T00:33:55;99492.91;;;6.22;100.00
8416;BME280;4245;42.120;24.732;2022-12-07T00:36:23;99504.09;;;6.27;100.00
8416;BME280;4245;42.120;24.732;2022-12-07T00:38:52;99501.28;;;6.13;100.00
8416;BME280;4245;42.120;24.732;2022-12-07T00:41:20;99502.00;;;5.98;100.00
8416;BME280;4245;42.120;24.732;2022-12-07T00:43:48;99498.28;;;6.02;100.00
8416;BME280;4245;42.120;24.732;2022-12-07T00:46:16;99500.69;;;6.06;100.00
8416;BME280;4245;42.120;24.732;2022-12-07T00:48:43;99496.44;;;6.04;100.00
8416;BME280;4245;42.120;24.732;2022-12-07T00:51:11;99493.00;;;6.02;100.00
8416;BME280;4245;42.120;24.732;2022-12-07T00:53:39;99482.88;;;6.11;100.00
8416;BME280;4245;42.120;24.732;2022-12-07T00:56:08;99491.16;;;6.04;100.00
8416;BME280;4245;42.120;24.732;2022-12-07T00:58:35;99488.97;;;5.95;100.00
8416;BME280;4245;42.120;24.732;2022-12-07T01:01:04;99486.75;;;6.04;100.00
8416;BME280;4245;42.120;24.732;2022-12-07T01:03:31;99491.38;;;5.99;100.00
8416;BME280;4245;42.120;24.732;2022-12-07T01:05:58;99482.84;;;5.94;100.00
8416;BME280;4245;42.120;24.732;2022-12-07T01:08:26;99484.63;;;5.94;100.00
8416;BME280;4245;42.120;24.732;2022-12-07T01:10:58;99479.56;;;5.89;100.00
8416;BME280;4245;42.120;24.732;2022-12-07T01:13:27;99480.06;;;5.97;100.00
8416;BME280;4245;42.120;24.732;2022-12-07T01:15:57;99466.66;;;5.83;100.00
8416;BME280;4245;42.120;24.732;2022-12-07T01:18:25;99468.81;;;5.94;100.00
8416;BME280;4245;42.120;24.732;2022-12-07T01:20:58;99470.59;;;5.93;100.00
8416;BME280;4245;42.120;24.732;2022-12-07T01:23:25;99475.63;;;5.98;100.00
8416;BME280;4245;42.120;24.732;2022-12-07T01:25:55;99467.16;;;5.91;100.00
8416;BME280;4245;42.120;24.732;2022-12-07T01:28:22;99464.53;;;5.91;100.00
8416;BME280;4245;42.120;24.732;2022-12-07T01:30:59;99464.41;;;5.94;100.00
8416;BME280;4245;42.120;24.732;2022-12-07T01:33:27;99465.78;;;6.01;100.00
8416;BME280;4245;42.120;24.732;2022-12-07T01:36:00;99457.75;;;6.04;100.00
8416;BME280;4245;42.120;24.732;2022-12-07T01:38:28;99454.59;;;5.96;100.00
8416;BME280;4245;42.120;24.732;2022-12-07T01:40:55;99453.53;;;6.00;100.00
8416;BME280;4245;42.120;24.732;2022-12-07T01:43:24;99442.16;;;6.00;100.00
8416;BME280;4245;42.120;24.732;2022-12-07T01:45:52;99447.50;;;5.98;100.00
8416;BME280;4245;42.120;24.732;2022-12-07T01:48:23;99444.41;;;6.07;100.00
8416;BME280;4245;42.120;24.732;2022-12-07T01:50:51;99435.16;;;5.99;100.00
8416;BME280;4245;42.120;24.732;2022-12-07T01:53:20;99440.97;;;6.05;100.00
8416;BME280;4245;42.120;24.732;2022-12-07T01:55:52;99442.69;;;6.06;100.00
8416;BME280;4245;42.120;24.732;2022-12-07T01:58:20;99443.06;;;5.99;100.00
8416;BME280;4245;42.120;24.732;2022-12-07T02:00:48;99447.66;;;5.95;100.00
8416;BME280;4245;42.120;24.732;2022-12-07T02:03:18;99442.56;;;5.91;100.00
8416;BME280;4245;42.120;24.732;2022-12-07T02:05:49;99452.56;;;5.84;100.00
8416;BME280;4245;42.120;24.732;2022-12-07T02:08:16;99440.28;;;5.83;100.00
8416;BME280;4245;42.120;24.732;2022-12-07T02:10:44;99442.00;;;5.84;100.00
8416;BME280;4245;42.120;24.732;2022-12-07T02:13:13;99435.09;;;5.82;100.00
8416;BME280;4245;42.120;24.732;2022-12-07T02:18:38;99440.44;;;5.80;100.00
8416;BME280;4245;42.120;24.732;2022-12-07T02:21:12;99424.13;;;5.91;100.00
8416;BME280;4245;42.120;24.732;2022-12-07T02:23:59;99429.38;;;5.91;100.00
8416;BME280;4245;42.120;24.732;2022-12-07T02:26:44;99432.38;;;5.83;100.00
8416;BME280;4245;42.120;24.732;2022-12-07T02:29:23;99423.78;;;5.80;100.00
8416;BME280;4245;42.120;24.732;2022-12-07T02:31:56;99423.19;;;5.92;100.00
8416;BME280;4245;42.120;24.732;2022-12-07T02:34:37;99420.00;;;5.85;100.00
8416;BME280;4245;42.120;24.732;2022-12-07T02:37:10;99415.38;;;5.90;100.00
8416;BME280;4245;42.120;24.732;2022-12-07T02:39:44;99423.34;;;5.89;100.00
8416;BME280;4245;42.120;24.732;2022-12-07T02:42:16;99409.97;;;5.75;100.00
8416;BME280;4245;42.120;24.732;2022-12-07T02:44:46;99409.47;;;5.66;100.00
8416;BME280;4245;42.120;24.732;2022-12-07T02:47:18;99422.13;;;5.77;100.00
8416;BME280;4245;42.120;24.732;2022-12-07T02:49:46;99416.00;;;5.77;100.00
8416;BME280;4245;42.120;24.732;2022-12-07T02:52:14;99415.06;;;5.78;100.00
8416;BME280;4245;42.120;24.732;2022-12-07T02:54:40;99404.06;;;5.69;100.00
8416;BME280;4245;42.120;24.732;2022-12-07T02:57:18;99403.44;;;5.82;100.00
8416;BME280;4245;42.120;24.732;2022-12-07T03:00:00;99400.41;;;5.72;100.00
8416;BME280;4245;42.120;24.732;2022-12-07T03:02:46;99390.88;;;5.69;100.00
8416;BME280;4245;42.120;24.732;2022-12-07T03:05:30;99391.41;;;5.76;100.00
8416;BME280;4245;42.120;24.732;2022-12-07T03:08:04;99391.88;;;5.67;100.00
8416;BME280;4245;42.120;24.732;2022-12-07T03:10:39;99395.88;;;5.76;100.00
8416;BME280;4245;42.120;24.732;2022-12-07T03:13:13;99398.28;;;5.80;100.00
8416;BME280;4245;42.120;24.732;2022-12-07T03:15:50;99393.50;;;5.88;100.00
8416;BME280;4245;42.120;24.732;2022-12-07T03:18:22;99394.28;;;5.90;100.00
8416;BME280;4245;42.120;24.732;2022-12-07T03:20:53;99405.66;;;5.91;100.00
8416;BME280;4245;42.120;24.732;2022-12-07T03:23:23;99415.91;;;5.97;100.00
8416;BME280;4245;42.120;24.732;2022-12-07T03:25:56;99408.28;;;6.09;100.00
8416;BME280;4245;42.120;24.732;2022-12-07T03:28:25;99417.97;;;6.09;100.00
8416;BME280;4245;42.120;24.732;2022-12-07T03:30:59;99411.72;;;6.10;100.00
8416;BME280;4245;42.120;24.732;2022-12-07T03:33:32;99408.91;;;6.15;100.00
8416;BME280;4245;42.120;24.732;2022-12-07T03:36:04;99418.50;;;6.16;100.00
8416;BME280;4245;42.120;24.732;2022-12-07T03:38:38;99413.97;;;6.00;100.00
8416;BME280;4245;42.120;24.732;2022-12-07T03:41:09;99408.00;;;5.97;100.00
8416;BME280;4245;42.120;24.732;2022-12-07T03:43:39;99416.03;;;6.13;100.00
8416;BME280;4245;42.120;24.732;2022-12-07T03:46:17;99408.28;;;6.09;100.00
8416;BME280;4245;42.120;24.732;2022-12-07T03:48:52;99411.66;;;5.94;100.00
8416;BME280;4245;42.120;24.732;2022-12-07T03:51:25;99402.06;;;5.75;100.00
8416;BME280;4245;42.120;24.732;2022-12-07T03:53:59;99401.06;;;5.58;100.00
8416;BME280;4245;42.120;24.732;2022-12-07T03:56:28;99398.44;;;5.58;100.00
8416;BME280;4245;42.120;24.732;2022-12-07T03:58:56;99391.19;;;5.63;100.00
8416;BME280;4245;42.120;24.732;2022-12-07T04:01:24;99397.88;;;5.71;100.00
8416;BME280;4245;42.120;24.732;2022-12-07T04:03:51;99401.97;;;5.76;100.00
8416;BME280;4245;42.120;24.732;2022-12-07T04:06:18;99398.09;;;5.66;100.00
8416;BME280;4245;42.120;24.732;2022-12-07T04:08:45;99394.16;;;5.75;100.00
8416;BME280;4245;42.120;24.732;2022-12-07T04:11:12;99395.59;;;5.63;100.00
8416;BME280;4245;42.120;24.732;2022-12-07T04:13:39;99398.84;;;5.68;100.00
8416;BME280;4245;42.120;24.732;2022-12-07T04:16:19;99393.56;;;5.51;100.00
8416;BME280;4245;42.120;24.732;2022-12-07T04:18:48;99394.47;;;5.50;100.00
8416;BME280;4245;42.120;24.732;2022-12-07T04:21:15;99387.56;;;5.47;100.00
8416;BME280;4245;42.120;24.732;2022-12-07T04:23:41;99382.03;;;5.35;100.00
8416;BME280;4245;42.120;24.732;2022-12-07T04:26:08;99386.31;;;5.37;100.00
8416;BME280;4245;42.120;24.732;2022-12-07T04:28:35;99378.53;;;5.34;100.00
8416;BME280;4245;42.120;24.732;2022-12-07T04:31:02;99375.56;;;5.42;100.00
8416;BME280;4245;42.120;24.732;2022-12-07T04:33:29;99381.03;;;5.37;100.00
8416;BME280;4245;42.120;24.732;2022-12-07T04:35:57;99380.88;;;5.40;100.00
8416;BME280;4245;42.120;24.732;2022-12-07T04:38:24;99376.53;;;5.39;100.00
8416;BME280;4245;42.120;24.732;2022-12-07T04:40:51;99376.97;;;5.49;100.00
8416;BME280;4245;42.120;24.732;2022-12-07T04:43:18;99383.78;;;5.53;100.00
8416;BME280;4245;42.120;24.732;2022-12-07T04:45:46;99373.81;;;5.59;100.00
8416;BME280;4245;42.120;24.732;2022-12-07T04:48:13;99376.38;;;5.61;100.00
8416;BME280;4245;42.120;24.732;2022-12-07T04:50:40;99372.78;;;5.62;100.00
8416;BME280;4245;42.120;24.732;2022-12-07T04:53:08;99370.50;;;5.73;100.00
8416;BME280;4245;42.120;24.732;2022-12-07T04:55:36;99375.47;;;5.79;100.00
8416;BME280;4245;42.120;24.732;2022-12-07T04:58:03;99371.13;;;5.78;100.00
8416;BME280;4245;42.120;24.732;2022-12-07T05:00:29;99371.34;;;5.74;100.00
8416;BME280;4245;42.120;24.732;2022-12-07T05:02:56;99380.81;;;5.78;100.00
8416;BME280;4245;42.120;24.732;2022-12-07T05:05:23;99383.44;;;5.78;100.00
8416;BME280;4245;42.120;24.732;2022-12-07T05:07:50;99391.13;;;5.82;100.00
8416;BME280;4245;42.120;24.732;2022-12-07T05:10:19;99388.59;;;5.81;100.00
8416;BME280;4245;42.120;24.732;2022-12-07T05:12:46;99385.22;;;5.77;100.00
8416;BME280;4245;42.120;24.732;2022-12-07T05:15:13;99388.38;;;5.85;100.00
8416;BME280;4245;42.120;24.732;2022-12-07T05:17:41;99385.09;;;5.80;100.00
8416;BME280;4245;42.120;24.732;2022-12-07T05:20:09;99383.50;;;5.76;100.00
8416;BME280;4245;42.120;24.732;2022-12-07T05:22:36;99389.50;;;5.80;100.00
8416;BME280;4245;42.120;24.732;2022-12-07T05:25:03;99385.84;;;5.82;100.00
8416;BME280;4245;42.120;24.732;2022-12-07T05:27:32;99390.22;;;5.83;100.00
8416;BME280;4245;42.120;24.732;2022-12-07T05:29:58;99394.19;;;5.92;100.00
8416;BME280;4245;42.120;24.732;2022-12-07T05:32:25;99402.97;;;5.92;100.00
8416;BME280;4245;42.120;24.732;2022-12-07T05:34:52;99400.09;;;5.97;100.00
8416;BME280;4245;42.120;24.732;2022-12-07T05:37:20;99404.50;;;5.96;100.00
8416;BME280;4245;42.120;24.732;2022-12-07T05:39:47;99407.66;;;6.04;100.00
8416;BME280;4245;42.120;24.732;2022-12-07T05:42:14;99405.88;;;6.05;100.00
8416;BME280;4245;42.120;24.732;2022-12-07T05:44:45;99398.47;;;5.94;100.00
8416;BME280;4245;42.120;24.732;2022-12-07T05:47:13;99393.75;;;6.01;100.00
8416;BME280;4245;42.120;24.732;2022-12-07T05:49:41;99392.06;;;6.00;100.00
8416;BME280;4245;42.120;24.732;2022-12-07T05:52:08;99401.34;;;5.90;100.00
8416;BME280;4245;42.120;24.732;2022-12-07T05:54:35;99393.28;;;5.93;100.00
8416;BME280;4245;42.120;24.732;2022-12-07T05:57:01;99397.75;;;5.91;100.00
8416;BME280;4245;42.120;24.732;2022-12-07T05:59:28;99406.47;;;5.93;100.00
8416;BME280;4245;42.120;24.732;2022-12-07T06:01:57;99411.66;;;5.94;100.00
8416;BME280;4245;42.120;24.732;2022-12-07T06:04:25;99400.41;;;5.91;100.00
8416;BME280;4245;42.120;24.732;2022-12-07T06:06:52;99399.56;;;5.90;100.00
8416;BME280;4245;42.120;24.732;2022-12-07T06:09:20;99406.88;;;5.84;100.00
8416;BME280;4245;42.120;24.732;2022-12-07T06:11:48;99408.72;;;5.82;100.00
8416;BME280;4245;42.120;24.732;2022-12-07T06:14:32;99402.50;;;7.81;100.00
8416;BME280;4245;42.120;24.732;2022-12-07T06:17:01;99406.06;;;9.00;100.00
8416;BME280;4245;42.120;24.732;2022-12-07T06:19:28;99409.69;;;10.08;100.00
8416;BME280;4245;42.120;24.732;2022-12-07T06:21:55;99409.41;;;9.85;100.00
8416;BME280;4245;42.120;24.732;2022-12-07T06:24:22;99409.88;;;9.51;100.00
8416;BME280;4245;42.120;24.732;2022-12-07T06:26:49;99414.16;;;9.25;100.00
8416;BME280;4245;42.120;24.732;2022-12-07T06:29:17;99425.28;;;8.45;100.00
8416;BME280;4245;42.120;24.732;2022-12-07T06:31:44;99415.53;;;7.84;100.00
8416;BME280;4245;42.120;24.732;2022-12-07T06:34:14;99413.41;;;8.07;100.00
8416;BME280;4245;42.120;24.732;2022-12-07T06:36:42;99412.66;;;8.35;100.00
8416;BME280;4245;42.120;24.732;2022-12-07T06:39:09;99418.25;;;9.16;100.00
8416;BME280;4245;42.120;24.732;2022-12-07T06:41:36;99431.72;;;8.55;100.00
8416;BME280;4245;42.120;24.732;2022-12-07T06:44:04;99424.03;;;10.05;100.00
8416;BME280;4245;42.120;24.732;2022-12-07T06:46:31;99431.19;;;10.44;100.00
8416;BME280;4245;42.120;24.732;2022-12-07T06:48:58;99436.78;;;10.79;100.00
8416;BME280;4245;42.120;24.732;2022-12-07T06:51:27;99433.69;;;11.10;100.00
8416;BME280;4245;42.120;24.732;2022-12-07T06:53:53;99431.25;;;11.69;100.00
8416;BME280;4245;42.120;24.732;2022-12-07T06:56:20;99435.00;;;11.54;100.00
8416;BME280;4245;42.120;24.732;2022-12-07T06:58:48;99428.78;;;12.15;100.00
8416;BME280;4245;42.120;24.732;2022-12-07T07:01:17;99429.78;;;12.25;100.00
8416;BME280;4245;42.120;24.732;2022-12-07T07:03:45;99433.97;;;12.40;100.00
8416;BME280;4245;42.120;24.732;2022-12-07T07:06:12;99433.47;;;12.70;100.00
8416;BME280;4245;42.120;24.732;2022-12-07T07:08:41;99428.41;;;12.43;100.00
8416;BME280;4245;42.120;24.732;2022-12-07T07:11:09;99429.22;;;12.68;100.00
8416;BME280;4245;42.120;24.732;2022-12-07T07:13:36;99434.75;;;12.53;100.00
8416;BME280;4245;42.120;24.732;2022-12-07T07:16:03;99438.34;;;11.94;100.00
8416;BME280;4245;42.120;24.732;2022-12-07T07:18:30;99426.41;;;12.23;100.00
8416;BME280;4245;42.120;24.732;2022-12-07T07:20:57;99441.56;;;12.69;100.00
8416;BME280;4245;42.120;24.732;2022-12-07T07:23:24;99435.88;;;12.73;100.00
8416;BME280;4245;42.120;24.732;2022-12-07T07:25:52;99446.72;;;12.94;100.00
8416;BME280;4245;42.120;24.732;2022-12-07T07:28:19;99440.66;;;13.03;100.00
8416;BME280;4245;42.120;24.732;2022-12-07T07:30:46;99445.50;;;12.98;100.00
8416;BME280;4245;42.120;24.732;2022-12-07T07:33:14;99440.28;;;12.50;100.00
8416;BME280;4245;42.120;24.732;2022-12-07T07:35:41;99429.03;;;12.47;100.00
8416;BME280;4245;42.120;24.732;2022-12-07T07:38:08;99437.69;;;12.61;100.00
8416;BME280;4245;42.120;24.732;2022-12-07T07:40:35;99438.13;;;12.90;100.00
8416;BME280;4245;42.120;24.732;2022-12-07T07:43:03;99444.69;;;12.04;100.00
8416;BME280;4245;42.120;24.732;2022-12-07T07:45:55;99450.69;;;12.42;100.00
8416;BME280;4245;42.120;24.732;2022-12-07T07:48:22;99449.53;;;11.37;100.00
8416;BME280;4245;42.120;24.732;2022-12-07T07:50:50;99445.69;;;10.78;100.00
8416;BME280;4245;42.120;24.732;2022-12-07T07:53:17;99455.28;;;10.41;100.00
8416;BME280;4245;42.120;24.732;2022-12-07T07:55:50;99454.56;;;10.39;100.00
8416;BME280;4245;42.120;24.732;2022-12-07T07:58:20;99453.75;;;10.24;100.00
8416;BME280;4245;42.120;24.732;2022-12-07T08:00:49;99442.28;;;10.24;100.00
8416;BME280;4245;42.120;24.732;2022-12-07T08:03:16;99445.16;;;10.21;100.00
8416;BME280;4245;42.120;24.732;2022-12-07T08:05:43;99443.38;;;10.34;100.00
8416;BME280;4245;42.120;24.732;2022-12-07T08:08:10;99447.28;;;10.68;100.00
8416;BME280;4245;42.120;24.732;2022-12-07T08:10:36;99440.50;;;11.14;100.00
8416;BME280;4245;42.120;24.732;2022-12-07T08:13:03;99447.34;;;11.80;100.00
8416;BME280;4245;42.120;24.732;2022-12-07T08:15:42;99450.75;;;12.53;100.00
8416;BME280;4245;42.120;24.732;2022-12-07T08:18:10;99446.94;;;13.26;100.00
8416;BME280;4245;42.120;24.732;2022-12-07T08:20:38;99455.41;;;13.53;100.00
8416;BME280;4245;42.120;24.732;2022-12-07T08:23:06;99453.19;;;13.80;100.00
8416;BME280;4245;42.120;24.732;2022-12-07T08:25:33;99446.88;;;14.04;100.00
8416;BME280;4245;42.120;24.732;2022-12-07T08:28:00;99451.00;;;14.28;100.00
8416;BME280;4245;42.120;24.732;2022-12-07T08:30:27;99452.44;;;14.44;100.00
8416;BME280;4245;42.120;24.732;2022-12-07T08:32:56;99457.41;;;14.80;100.00
8416;BME280;4245;42.120;24.732;2022-12-07T08:35:23;99457.22;;;15.44;100.00
8416;BME280;4245;42.120;24.732;2022-12-07T08:37:51;99461.25;;;16.08;100.00
8416;BME280;4245;42.120;24.732;2022-12-07T08:40:18;99460.38;;;16.67;93.77
8416;BME280;4245;42.120;24.732;2022-12-07T08:42:48;99459.34;;;16.49;73.86
8416;BME280;4245;42.120;24.732;2022-12-07T08:45:17;99458.06;;;16.43;72.13
8416;BME280;4245;42.120;24.732;2022-12-07T08:47:47;99447.38;;;16.63;66.29
8416;BME280;4245;42.120;24.732;2022-12-07T08:50:17;99448.50;;;16.89;65.75
8416;BME280;4245;42.120;24.732;2022-12-07T08:52:44;99445.59;;;17.19;65.13
8416;BME280;4245;42.120;24.732;2022-12-07T08:55:11;99440.56;;;17.44;64.74
8416;BME280;4245;42.120;24.732;2022-12-07T08:57:39;99445.75;;;17.64;63.47
8416;BME280;4245;42.120;24.732;2022-12-07T09:00:07;99441.19;;;17.74;63.46
8416;BME280;4245;42.120;24.732;2022-12-07T09:02:34;99437.91;;;18.25;61.35
8416;BME280;4245;42.120;24.732;2022-12-07T09:05:01;99437.16;;;17.61;61.92
8416;BME280;4245;42.120;24.732;2022-12-07T09:07:30;99428.72;;;16.71;65.69
8416;BME280;4245;42.120;24.732;2022-12-07T09:09:58;99421.38;;;16.53;66.89
8416;BME280;4245;42.120;24.732;2022-12-07T09:12:25;99410.53;;;16.74;65.83
8416;BME280;4245;42.120;24.732;2022-12-07T09:14:52;99410.94;;;17.35;65.08
8416;BME280;4245;42.120;24.732;2022-12-07T09:17:19;99402.50;;;17.21;63.71
8416;BME280;4245;42.120;24.732;2022-12-07T09:19:45;99397.09;;;17.67;63.65
8416;BME280;4245;42.120;24.732;2022-12-07T09:22:12;99394.13;;;17.33;63.20
8416;BME280;4245;42.120;24.732;2022-12-07T09:24:40;99387.50;;;17.65;62.82
8416;BME280;4245;42.120;24.732;2022-12-07T09:27:08;99397.41;;;18.09;59.39
8416;BME280;4245;42.120;24.732;2022-12-07T09:29:35;99391.28;;;18.35;59.80
8416;BME280;4245;42.120;24.732;2022-12-07T09:32:02;99390.13;;;18.73;58.12
8416;BME280;4245;42.120;24.732;2022-12-07T09:34:30;99378.34;;;18.99;56.11
8416;BME280;4245;42.120;24.732;2022-12-07T09:36:57;99369.56;;;19.49;54.95
8416;BME280;4245;42.120;24.732;2022-12-07T09:39:24;99366.63;;;19.76;54.66
8416;BME280;4245;42.120;24.732;2022-12-07T09:41:52;99366.03;;;20.07;52.81
8416;BME280;4245;42.120;24.732;2022-12-07T09:44:23;99360.19;;;20.27;52.49
8416;BME280;4245;42.120;24.732;2022-12-07T09:46:51;99355.69;;;20.52;52.32
8416;BME280;4245;42.120;24.732;2022-12-07T09:49:20;99349.56;;;20.74;51.61
8416;BME280;4245;42.120;24.732;2022-12-07T09:51:58;99357.03;;;20.56;50.31
8416;BME280;4245;42.120;24.732;2022-12-07T09:54:25;99353.75;;;20.28;50.81
8416;BME280;4245;42.120;24.732;2022-12-07T09:56:53;99355.34;;;20.71;50.63
8416;BME280;4245;42.120;24.732;2022-12-07T09:59:20;99348.84;;;20.97;50.08
8416;BME280;4245;42.120;24.732;2022-12-07T10:01:49;99341.63;;;20.89;49.31
8416;BME280;4245;42.120;24.732;2022-12-07T10:04:18;99339.47;;;21.40;48.95
8416;BME280;4245;42.120;24.732;2022-12-07T10:06:46;99346.03;;;21.53;46.81
8416;BME280;4245;42.120;24.732;2022-12-07T10:09:15;99340.41;;;21.16;47.28
8416;BME280;4245;42.120;24.732;2022-12-07T10:12:03;99336.84;;;21.07;48.84
8416;BME280;4245;42.120;24.732;2022-12-07T10:14:33;99340.41;;;21.55;47.69
8416;BME280;4245;42.120;24.732;2022-12-07T10:17:00;99332.41;;;21.31;47.01
8416;BME280;4245;42.120;24.732;2022-12-07T10:19:28;99331.03;;;20.63;48.87
8416;BME280;4245;42.120;24.732;2022-12-07T10:22:09;99327.13;;;20.58;48.41
8416;BME280;4245;42.120;24.732;2022-12-07T10:24:36;99323.44;;;20.51;49.01
8416;BME280;4245;42.120;24.732;2022-12-07T10:27:17;99314.47;;;20.74;48.46
8416;BME280;4245;42.120;24.732;2022-12-07T10:29:47;99304.53;;;21.38;46.90
8416;BME280;4245;42.120;24.732;2022-12-07T10:32:29;99302.34;;;21.73;45.81
8416;BME280;4245;42.120;24.732;2022-12-07T10:35:19;99302.59;;;21.86;45.68
8416;BME280;4245;42.120;24.732;2022-12-07T10:37:47;99297.44;;;21.99;44.71
8416;BME280;4245;42.120;24.732;2022-12-07T10:40:27;99305.47;;;21.53;45.35
8416;BME280;4245;42.120;24.732;2022-12-07T10:43:07;99316.63;;;21.03;46.50
8416;BME280;4245;42.120;24.732;2022-12-07T10:45:59;99309.25;;;20.81;47.51
8416;BME280;4245;42.120;24.732;2022-12-07T10:48:37;99307.97;;;21.16;46.43
8416;BME280;4245;42.120;24.732;2022-12-07T10:51:09;99309.50;;;21.02;47.28
8416;BME280;4245;42.120;24.732;2022-12-07T10:53:45;99304.81;;;20.96;48.15
8416;BME280;4245;42.120;24.732;2022-12-07T10:56:36;99299.78;;;20.77;46.94
8416;BME280;4245;42.120;24.732;2022-12-07T10:59:33;99295.94;;;20.71;47.80
8416;BME280;4245;42.120;24.732;2022-12-07T11:02:18;99307.03;;;20.85;47.18
8416;BME280;4245;42.120;24.732;2022-12-07T11:04:56;99301.50;;;20.29;49.33
8416;BME280;4245;42.120;24.732;2022-12-07T11:07:38;99295.88;;;20.88;48.85
8416;BME280;4245;42.120;24.732;2022-12-07T11:10:13;99293.16;;;21.82;46.31
8416;BME280;4245;42.120;24.732;2022-12-07T11:12:52;99284.75;;;22.45;44.78
8416;BME280;4245;42.120;24.732;2022-12-07T11:15:29;99288.88;;;22.33;42.95
8416;BME280;4245;42.120;24.732;2022-12-07T11:18:06;99282.41;;;20.79;46.29
8416;BME280;4245;42.120;24.732;2022-12-07T11:20:41;99277.72;;;19.92;49.83
8416;BME280;4245;42.120;24.732;2022-12-07T11:23:18;99274.69;;;19.95;50.57
8416;BME280;4245;42.120;24.732;2022-12-07T11:25:53;99275.72;;;20.03;50.69
8416;BME280;4245;42.120;24.732;2022-12-07T11:28:35;99267.50;;;19.04;52.94
8416;BME280;4245;42.120;24.732;2022-12-07T11:31:12;99259.41;;;18.01;55.74
8416;BME280;4245;42.120;24.732;2022-12-07T11:33:47;99263.25;;;17.53;58.59
8416;BME280;4245;42.120;24.732;2022-12-07T11:36:31;99255.72;;;16.94;61.77
8416;BME280;4245;42.120;24.732;2022-12-07T11:39:02;99244.00;;;17.40;60.52
8416;BME280;4245;42.120;24.732;2022-12-07T11:41:34;99250.69;;;17.36;60.08
8416;BME280;4245;42.120;24.732;2022-12-07T11:44:05;99252.66;;;16.23;64.06
8416;BME280;4245;42.120;24.732;2022-12-07T11:46:44;99253.41;;;15.87;66.52
8416;BME280;4245;42.120;24.732;2022-12-07T11:49:18;99241.69;;;15.59;68.74
8416;BME280;4245;42.120;24.732;2022-12-07T11:51:49;99238.41;;;15.36;69.99
8416;BME280;4245;42.120;24.732;2022-12-07T11:54:22;99232.22;;;15.45;71.27
8416;BME280;4245;42.120;24.732;2022-12-07T11:56:51;99228.88;;;15.62;70.61
8416;BME280;4245;42.120;24.732;2022-12-07T11:59:23;99223.34;;;16.02;68.91
8416;BME280;4245;42.120;24.732;2022-12-07T12:01:57;99225.34;;;15.91;68.71
8416;BME280;4245;42.120;24.732;2022-12-07T12:04:34;99224.19;;;16.03;69.03
8416;BME280;4245;42.120;24.732;2022-12-07T12:07:07;99216.31;;;16.11;68.72
8416;BME280;4245;42.120;24.732;2022-12-07T12:09:45;99217.41;;;16.08;68.64
8416;BME280;4245;42.120;24.732;2022-12-07T12:12:34;99213.03;;;16.07;67.52
8416;BME280;4245;42.120;24.732;2022-12-07T12:15:18;99216.56;;;15.50;77.31
8416;BME280;4245;42.120;24.732;2022-12-07T12:18:05;99218.88;;;15.64;73.67
8416;BME280;4245;42.120;24.732;2022-12-07T12:20:40;99207.84;;;15.48;72.36
8416;BME280;4245;42.120;24.732;2022-12-07T12:23:12;99207.59;;;15.61;72.04
8416;BME280;4245;42.120;24.732;2022-12-07T12:25:43;99210.94;;;16.11;78.54
8416;BME280;4245;42.120;24.732;2022-12-07T12:28:24;99210.50;;;16.16;70.15
8416;BME280;4245;42.120;24.732;2022-12-07T12:31:08;99207.53;;;16.19;68.90
8416;BME280;4245;42.120;24.732;2022-12-07T12:33:43;99200.50;;;15.98;68.95
8416;BME280;4245;42.120;24.732;2022-12-07T12:36:19;99198.47;;;15.54;70.73
8416;BME280;4245;42.120;24.732;2022-12-07T12:38:51;99186.59;;;15.56;74.47
8416;BME280;4245;42.120;24.732;2022-12-07T12:41:54;99194.22;;;15.51;71.55
8416;BME280;4245;42.120;24.732;2022-12-07T12:47:42;99177.81;;;15.16;72.98
8416;BME280;4245;42.120;24.732;2022-12-07T12:50:22;99178.78;;;15.05;73.47
8416;BME280;4245;42.120;24.732;2022-12-07T12:58:43;99168.59;;;14.80;75.16
8416;BME280;4245;42.120;24.732;2022-12-07T13:01:44;99170.31;;;14.91;75.46
8416;BME280;4245;42.120;24.732;2022-12-07T13:07:57;99170.28;;;14.81;75.18
8416;BME280;4245;42.120;24.732;2022-12-07T13:10:37;99164.31;;;14.68;76.17
8416;BME280;4245;42.120;24.732;2022-12-07T13:13:29;99164.59;;;14.55;76.56
8416;BME280;4245;42.120;24.732;2022-12-07T13:18:57;99164.25;;;14.18;78.93
8416;BME280;4245;42.120;24.732;2022-12-07T13:21:43;99166.31;;;14.15;79.70
8416;BME280;4245;42.120;24.732;2022-12-07T13:24:12;99164.72;;;14.03;80.58
8416;BME280;4245;42.120;24.732;2022-12-07T13:26:42;99172.22;;;13.88;82.20
8416;BME280;4245;42.120;24.732;2022-12-07T13:29:12;99173.19;;;13.87;81.88
8416;BME280;4245;42.120;24.732;2022-12-07T13:31:41;99169.56;;;13.67;83.77
8416;BME280;4245;42.120;24.732;2022-12-07T13:34:30;99169.03;;;13.53;85.63
8416;BME280;4245;42.120;24.732;2022-12-07T13:36:58;99173.13;;;13.57;85.34
8416;BME280;4245;42.120;24.732;2022-12-07T13:39:28;99167.47;;;13.50;86.55
8416;BME280;4245;42.120;24.732;2022-12-07T13:41:56;99173.00;;;13.58;86.43
8416;BME280;4245;42.120;24.732;2022-12-07T13:44:23;99179.72;;;13.41;86.20
8416;BME280;4245;42.120;24.732;2022-12-07T13:46:59;99173.84;;;13.27;87.09
8416;BME280;4245;42.120;24.732;2022-12-07T13:49:30;99170.97;;;13.19;88.80